sensor_id;sensor_type;location;lat;lon;timestamp;pressure;altitude;pressure_sealevel;temperature
11926;BMP180;6022;48.768;18.608;2022-11-02T00:00:52;98918.66;;;10.16
11926;BMP180;6022;48.768;18.608;2022-11-02T00:03:20;98916.97;;;10.17
11926;BMP180;6022;48.768;18.608;2022-11-02T00:05:47;98912.72;;;10.17
11926;BMP180;6022;48.768;18.608;2022-11-02T00:08:14;98913.59;;;10.16
11926;BMP180;6022;48.768;18.608;2022-11-02T00:10:41;98915.50;;;10.13
11926;BMP180;6022;48.768;18.608;2022-11-02T00:13:08;98923.19;;;10.11
11926;BMP180;6022;48.768;18.608;2022-11-02T00:15:36;98915.56;;;10.11
11926;BMP180;6022;48.768;18.608;2022-11-02T00:18:08;98918.03;;;10.13
11926;BMP180;6022;48.768;18.608;2022-11-02T00:20:39;98922.25;;;10.12
11926;BMP180;6022;48.768;18.608;2022-11-02T00:23:08;98919.00;;;10.10
11926;BMP180;6022;48.768;18.608;2022-11-02T00:25:41;98925.88;;;10.08
11926;BMP180;6022;48.768;18.608;2022-11-02T00:28:10;98931.94;;;10.06
11926;BMP180;6022;48.768;18.608;2022-11-02T00:30:37;98933.66;;;10.05
11926;BMP180;6022;48.768;18.608;2022-11-02T00:33:04;98936.19;;;10.05
11926;BMP180;6022;48.768;18.608;2022-11-02T00:35:33;98935.34;;;10.05
11926;BMP180;6022;48.768;18.608;2022-11-02T00:38:02;98937.81;;;10.06
11926;BMP180;6022;48.768;18.608;2022-11-02T00:40:30;98930.13;;;10.08
11926;BMP180;6022;48.768;18.608;2022-11-02T00:42:57;98931.34;;;10.16
11926;BMP180;6022;48.768;18.608;2022-11-02T00:45:24;98932.41;;;10.12
11926;BMP180;6022;48.768;18.608;2022-11-02T00:47:51;98927.34;;;10.12
11926;BMP180;6022;48.768;18.608;2022-11-02T00:50:18;98923.91;;;10.13
11926;BMP180;6022;48.768;18.608;2022-11-02T00:52:45;98917.19;;;10.12
11926;BMP180;6022;48.768;18.608;2022-11-02T00:55:13;98920.56;;;10.13
11926;BMP180;6022;48.768;18.608;2022-11-02T00:57:41;98916.38;;;10.12
11926;BMP180;6022;48.768;18.608;2022-11-02T01:00:10;98913.78;;;10.13
11926;BMP180;6022;48.768;18.608;2022-11-02T01:02:37;98915.38;;;10.14
11926;BMP180;6022;48.768;18.608;2022-11-02T01:05:07;98914.50;;;10.15
11926;BMP180;6022;48.768;18.608;2022-11-02T01:07:35;98914.59;;;10.14
11926;BMP180;6022;48.768;18.608;2022-11-02T01:10:08;98914.59;;;10.14
11926;BMP180;6022;48.768;18.608;2022-11-02T01:12:39;98912.13;;;10.12
11926;BMP180;6022;48.768;18.608;2022-11-02T01:15:07;98909.69;;;10.11
11926;BMP180;6022;48.768;18.608;2022-11-02T01:17:37;98907.16;;;10.11
11926;BMP180;6022;48.768;18.608;2022-11-02T01:20:05;98898.72;;;10.10
11926;BMP180;6022;48.768;18.608;2022-11-02T01:22:33;98906.31;;;10.10
11926;BMP180;6022;48.768;18.608;2022-11-02T01:25:00;98897.09;;;10.09
11926;BMP180;6022;48.768;18.608;2022-11-02T01:27:28;98898.06;;;10.07
11926;BMP180;6022;48.768;18.608;2022-11-02T01:29:55;98892.19;;;10.06
11926;BMP180;6022;48.768;18.608;2022-11-02T01:32:22;98900.84;;;10.02
11926;BMP180;6022;48.768;18.608;2022-11-02T01:34:49;98899.53;;;9.95
11926;BMP180;6022;48.768;18.608;2022-11-02T01:37:17;98891.84;;;9.97
11926;BMP180;6022;48.768;18.608;2022-11-02T01:39:44;98884.44;;;9.94
11926;BMP180;6022;48.768;18.608;2022-11-02T01:42:23;98890.69;;;9.87
11926;BMP180;6022;48.768;18.608;2022-11-02T01:44:51;98891.75;;;9.83
11926;BMP180;6022;48.768;18.608;2022-11-02T01:47:36;98890.34;;;9.78
11926;BMP180;6022;48.768;18.608;2022-11-02T01:50:16;98892.16;;;9.76
11926;BMP180;6022;48.768;18.608;2022-11-02T01:52:45;98883.97;;;9.71
11926;BMP180;6022;48.768;18.608;2022-11-02T01:55:20;98880.69;;;9.69
11926;BMP180;6022;48.768;18.608;2022-11-02T01:58:09;98881.03;;;9.63
11926;BMP180;6022;48.768;18.608;2022-11-02T02:00:38;98877.22;;;9.54
11926;BMP180;6022;48.768;18.608;2022-11-02T02:03:14;98894.56;;;9.46
11926;BMP180;6022;48.768;18.608;2022-11-02T02:06:03;98895.69;;;9.41
11926;BMP180;6022;48.768;18.608;2022-11-02T02:08:31;98893.88;;;9.43
11926;BMP180;6022;48.768;18.608;2022-11-02T02:11:00;98890.94;;;9.35
11926;BMP180;6022;48.768;18.608;2022-11-02T02:13:28;98892.06;;;9.30
11926;BMP180;6022;48.768;18.608;2022-11-02T02:16:21;98891.25;;;9.29
11926;BMP180;6022;48.768;18.608;2022-11-02T02:18:57;98900.59;;;9.44
11926;BMP180;6022;48.768;18.608;2022-11-02T02:24:32;98892.94;;;9.45
11926;BMP180;6022;48.768;18.608;2022-11-02T02:30:08;98894.66;;;9.28
11926;BMP180;6022;48.768;18.608;2022-11-02T02:35:47;98900.22;;;9.19
11926;BMP180;6022;48.768;18.608;2022-11-02T02:38:33;98898.72;;;9.15
11926;BMP180;6022;48.768;18.608;2022-11-02T02:43:56;98896.34;;;9.12
11926;BMP180;6022;48.768;18.608;2022-11-02T02:46:41;98903.06;;;9.13
11926;BMP180;6022;48.768;18.608;2022-11-02T02:49:21;98900.53;;;9.13
11926;BMP180;6022;48.768;18.608;2022-11-02T02:51:54;98904.75;;;9.13
11926;BMP180;6022;48.768;18.608;2022-11-02T02:54:33;98909.00;;;9.12
11926;BMP180;6022;48.768;18.608;2022-11-02T02:57:16;98902.31;;;9.11
11926;BMP180;6022;48.768;18.608;2022-11-02T02:59:47;98913.47;;;9.07
11926;BMP180;6022;48.768;18.608;2022-11-02T03:02:29;98916.16;;;9.04
11926;BMP180;6022;48.768;18.608;2022-11-02T03:04:57;98918.75;;;9.03
11926;BMP180;6022;48.768;18.608;2022-11-02T03:07:29;98917.09;;;9.02
11926;BMP180;6022;48.768;18.608;2022-11-02T03:10:19;98924.63;;;9.03
11926;BMP180;6022;48.768;18.608;2022-11-02T03:13:08;98936.47;;;9.03
11926;BMP180;6022;48.768;18.608;2022-11-02T03:19:01;98931.78;;;8.96
11926;BMP180;6022;48.768;18.608;2022-11-02T03:21:42;98930.31;;;8.92
11926;BMP180;6022;48.768;18.608;2022-11-02T03:24:32;98935.50;;;8.89
11926;BMP180;6022;48.768;18.608;2022-11-02T03:30:22;98940.78;;;8.84
11926;BMP180;6022;48.768;18.608;2022-11-02T03:35:35;98944.28;;;8.82
11926;BMP180;6022;48.768;18.608;2022-11-02T03:38:17;98945.03;;;8.84
11926;BMP180;6022;48.768;18.608;2022-11-02T03:40:49;98940.13;;;8.81
11926;BMP180;6022;48.768;18.608;2022-11-02T03:43:19;98944.28;;;8.82
11926;BMP180;6022;48.768;18.608;2022-11-02T03:45:55;98941.03;;;8.80
11926;BMP180;6022;48.768;18.608;2022-11-02T03:48:28;98945.25;;;8.79
11926;BMP180;6022;48.768;18.608;2022-11-02T03:50:59;98951.13;;;8.80
11926;BMP180;6022;48.768;18.608;2022-11-02T03:53:42;98949.47;;;8.79
11926;BMP180;6022;48.768;18.608;2022-11-02T03:56:25;98949.56;;;8.77
11926;BMP180;6022;48.768;18.608;2022-11-02T03:58:53;98944.44;;;8.79
11926;BMP180;6022;48.768;18.608;2022-11-02T04:01:20;98946.44;;;8.72
11926;BMP180;6022;48.768;18.608;2022-11-02T04:03:48;98945.91;;;8.66
11926;BMP180;6022;48.768;18.608;2022-11-02T04:06:15;98951.19;;;8.62
11926;BMP180;6022;48.768;18.608;2022-11-02T04:08:46;98950.38;;;8.61
11926;BMP180;6022;48.768;18.608;2022-11-02T04:11:15;98950.38;;;8.61
11926;BMP180;6022;48.768;18.608;2022-11-02T04:14:00;98956.38;;;8.59
11926;BMP180;6022;48.768;18.608;2022-11-02T04:16:46;98960.63;;;8.58
11926;BMP180;6022;48.768;18.608;2022-11-02T04:19:15;98955.56;;;8.58
11926;BMP180;6022;48.768;18.608;2022-11-02T04:21:55;98965.81;;;8.55
11926;BMP180;6022;48.768;18.608;2022-11-02T04:24:41;98969.25;;;8.54
11926;BMP180;6022;48.768;18.608;2022-11-02T04:27:27;98971.09;;;8.51
11926;BMP180;6022;48.768;18.608;2022-11-02T04:29:54;98974.59;;;8.48
11926;BMP180;6022;48.768;18.608;2022-11-02T04:32:21;98976.28;;;8.48
11926;BMP180;6022;48.768;18.608;2022-11-02T04:35:07;98978.16;;;8.44
11926;BMP180;6022;48.768;18.608;2022-11-02T04:37:39;98975.63;;;8.44
11926;BMP180;6022;48.768;18.608;2022-11-02T04:40:25;98977.25;;;8.45
11926;BMP180;6022;48.768;18.608;2022-11-02T04:42:52;98982.19;;;8.48
11926;BMP180;6022;48.768;18.608;2022-11-02T04:45:20;98983.00;;;8.49
11926;BMP180;6022;48.768;18.608;2022-11-02T04:47:47;98987.22;;;8.48
11926;BMP180;6022;48.768;18.608;2022-11-02T04:50:14;98991.38;;;8.49
11926;BMP180;6022;48.768;18.608;2022-11-02T04:52:42;98983.72;;;8.51
11926;BMP180;6022;48.768;18.608;2022-11-02T04:55:09;98982.75;;;8.53
11926;BMP180;6022;48.768;18.608;2022-11-02T04:57:36;98988.50;;;8.57
11926;BMP180;6022;48.768;18.608;2022-11-02T05:00:04;98986.88;;;8.56
11926;BMP180;6022;48.768;18.608;2022-11-02T05:02:33;98988.44;;;8.58
11926;BMP180;6022;48.768;18.608;2022-11-02T05:05:00;98998.56;;;8.58
11926;BMP180;6022;48.768;18.608;2022-11-02T05:07:28;98992.63;;;8.59
11926;BMP180;6022;48.768;18.608;2022-11-02T05:09:55;98994.25;;;8.60
11926;BMP180;6022;48.768;18.608;2022-11-02T05:12:22;98993.38;;;8.61
11926;BMP180;6022;48.768;18.608;2022-11-02T05:14:54;98983.25;;;8.61
11926;BMP180;6022;48.768;18.608;2022-11-02T05:17:22;98993.38;;;8.61
11926;BMP180;6022;48.768;18.608;2022-11-02T05:19:49;98995.91;;;8.61
11926;BMP180;6022;48.768;18.608;2022-11-02T05:22:16;98993.81;;;8.69
11926;BMP180;6022;48.768;18.608;2022-11-02T05:24:43;98993.38;;;8.61
11926;BMP180;6022;48.768;18.608;2022-11-02T05:27:10;98991.09;;;8.55
11926;BMP180;6022;48.768;18.608;2022-11-02T05:29:38;99008.03;;;8.53
11926;BMP180;6022;48.768;18.608;2022-11-02T05:32:05;99013.31;;;8.49
11926;BMP180;6022;48.768;18.608;2022-11-02T05:34:33;99011.91;;;8.43
11926;BMP180;6022;48.768;18.608;2022-11-02T05:37:00;99017.84;;;8.42
11926;BMP180;6022;48.768;18.608;2022-11-02T05:39:27;99025.34;;;8.44
11926;BMP180;6022;48.768;18.608;2022-11-02T05:41:54;99023.66;;;8.44
11926;BMP180;6022;48.768;18.608;2022-11-02T05:44:21;99012.72;;;8.44
11926;BMP180;6022;48.768;18.608;2022-11-02T05:46:48;99027.22;;;8.40
11926;BMP180;6022;48.768;18.608;2022-11-02T05:49:15;99024.06;;;8.35
11926;BMP180;6022;48.768;18.608;2022-11-02T05:51:43;99019.88;;;8.34
11926;BMP180;6022;48.768;18.608;2022-11-02T05:54:10;99015.66;;;8.35
11926;BMP180;6022;48.768;18.608;2022-11-02T05:56:37;99025.69;;;8.36
11926;BMP180;6022;48.768;18.608;2022-11-02T05:59:04;99026.53;;;8.37
11926;BMP180;6022;48.768;18.608;2022-11-02T06:01:32;99034.94;;;8.37
11926;BMP180;6022;48.768;18.608;2022-11-02T06:03:59;99038.19;;;8.39
11926;BMP180;6022;48.768;18.608;2022-11-02T06:06:26;99042.38;;;8.40
11926;BMP180;6022;48.768;18.608;2022-11-02T06:08:53;99041.75;;;8.54
11926;BMP180;6022;48.768;18.608;2022-11-02T06:11:21;99039.75;;;8.60
11926;BMP180;6022;48.768;18.608;2022-11-02T06:13:50;99038.94;;;8.60
11926;BMP180;6022;48.768;18.608;2022-11-02T06:16:17;99037.28;;;8.59
11926;BMP180;6022;48.768;18.608;2022-11-02T06:18:49;99046.47;;;8.61
11926;BMP180;6022;48.768;18.608;2022-11-02T06:21:16;99041.41;;;8.61
11926;BMP180;6022;48.768;18.608;2022-11-02T06:23:47;99050.28;;;8.69
11926;BMP180;6022;48.768;18.608;2022-11-02T06:26:14;99048.88;;;8.81
11926;BMP180;6022;48.768;18.608;2022-11-02T06:28:42;99048.41;;;8.91
11926;BMP180;6022;48.768;18.608;2022-11-02T06:31:09;99051.72;;;9.10
11926;BMP180;6022;48.768;18.608;2022-11-02T06:33:36;99051.63;;;9.28
11926;BMP180;6022;48.768;18.608;2022-11-02T06:36:03;99057.44;;;9.47
11926;BMP180;6022;48.768;18.608;2022-11-02T06:38:31;99058.28;;;9.64
11926;BMP180;6022;48.768;18.608;2022-11-02T06:41:02;99066.72;;;9.80
11926;BMP180;6022;48.768;18.608;2022-11-02T06:43:32;99072.94;;;9.91
11926;BMP180;6022;48.768;18.608;2022-11-02T06:46:00;99073.56;;;10.12
11926;BMP180;6022;48.768;18.608;2022-11-02T06:48:27;99071.78;;;10.29
11926;BMP180;6022;48.768;18.608;2022-11-02T06:51:03;99072.66;;;10.45
11926;BMP180;6022;48.768;18.608;2022-11-02T06:53:30;99070.50;;;10.53
11926;BMP180;6022;48.768;18.608;2022-11-02T06:55:59;99060.63;;;10.63
11926;BMP180;6022;48.768;18.608;2022-11-02T06:58:26;99067.16;;;10.67
11926;BMP180;6022;48.768;18.608;2022-11-02T07:01:00;99068.31;;;10.77
11926;BMP180;6022;48.768;18.608;2022-11-02T07:03:29;99061.09;;;10.85
11926;BMP180;6022;48.768;18.608;2022-11-02T07:05:56;99065.63;;;10.80
11926;BMP180;6022;48.768;18.608;2022-11-02T07:08:24;99073.97;;;10.82
11926;BMP180;6022;48.768;18.608;2022-11-02T07:10:52;99076.25;;;10.71
11926;BMP180;6022;48.768;18.608;2022-11-02T07:13:19;99073.06;;;10.68
11926;BMP180;6022;48.768;18.608;2022-11-02T07:15:46;99076.84;;;10.76
11926;BMP180;6022;48.768;18.608;2022-11-02T07:18:14;99071.47;;;10.96
11926;BMP180;6022;48.768;18.608;2022-11-02T07:20:41;99077.91;;;11.17
11926;BMP180;6022;48.768;18.608;2022-11-02T07:23:08;99072.78;;;11.03
11926;BMP180;6022;48.768;18.608;2022-11-02T07:25:36;99080.34;;;11.04
11926;BMP180;6022;48.768;18.608;2022-11-02T07:28:06;99070.78;;;11.23
11926;BMP180;6022;48.768;18.608;2022-11-02T07:30:34;99076.97;;;11.48
11926;BMP180;6022;48.768;18.608;2022-11-02T07:33:01;99078.06;;;11.73
11926;BMP180;6022;48.768;18.608;2022-11-02T07:35:29;99074.69;;;12.01
11926;BMP180;6022;48.768;18.608;2022-11-02T07:38:03;99066.34;;;12.26
11926;BMP180;6022;48.768;18.608;2022-11-02T07:40:34;99055.59;;;12.49
11926;BMP180;6022;48.768;18.608;2022-11-02T07:43:01;99051.66;;;12.71
11926;BMP180;6022;48.768;18.608;2022-11-02T07:45:29;99044.81;;;13.12
11926;BMP180;6022;48.768;18.608;2022-11-02T07:47:56;99052.56;;;13.73
11926;BMP180;6022;48.768;18.608;2022-11-02T07:50:25;99054.78;;;14.52
11926;BMP180;6022;48.768;18.608;2022-11-02T07:52:57;99046.47;;;15.19
11926;BMP180;6022;48.768;18.608;2022-11-02T07:55:28;99068.75;;;15.75
11926;BMP180;6022;48.768;18.608;2022-11-02T07:57:58;99055.66;;;16.01
11926;BMP180;6022;48.768;18.608;2022-11-02T08:00:29;99049.28;;;16.50
11926;BMP180;6022;48.768;18.608;2022-11-02T08:02:58;99054.09;;;16.85
11926;BMP180;6022;48.768;18.608;2022-11-02T08:05:27;99049.03;;;17.37
11926;BMP180;6022;48.768;18.608;2022-11-02T08:08:08;99049.38;;;17.43
11926;BMP180;6022;48.768;18.608;2022-11-02T08:10:36;99036.41;;;17.85
11926;BMP180;6022;48.768;18.608;2022-11-02T08:13:08;99035.78;;;18.13
11926;BMP180;6022;48.768;18.608;2022-11-02T08:15:38;99037.28;;;18.54
11926;BMP180;6022;48.768;18.608;2022-11-02T08:18:13;99035.34;;;18.47
11926;BMP180;6022;48.768;18.608;2022-11-02T08:20:44;99040.44;;;18.86
11926;BMP180;6022;48.768;18.608;2022-11-02T08:23:14;99035.91;;;19.27
11926;BMP180;6022;48.768;18.608;2022-11-02T08:25:43;99042.28;;;19.41
11926;BMP180;6022;48.768;18.608;2022-11-02T08:28:25;99030.34;;;19.31
11926;BMP180;6022;48.768;18.608;2022-11-02T08:30:53;99036.59;;;18.52
11926;BMP180;6022;48.768;18.608;2022-11-02T08:33:20;99031.03;;;17.88
11926;BMP180;6022;48.768;18.608;2022-11-02T08:35:48;99023.22;;;17.69
11926;BMP180;6022;48.768;18.608;2022-11-02T08:38:16;99027.97;;;17.53
11926;BMP180;6022;48.768;18.608;2022-11-02T08:40:44;99035.28;;;18.08
11926;BMP180;6022;48.768;18.608;2022-11-02T08:43:14;99029.16;;;18.58
11926;BMP180;6022;48.768;18.608;2022-11-02T08:45:43;99020.06;;;19.03
11926;BMP180;6022;48.768;18.608;2022-11-02T08:48:32;99022.06;;;19.56
11926;BMP180;6022;48.768;18.608;2022-11-02T08:50:59;99027.19;;;19.84
11926;BMP180;6022;48.768;18.608;2022-11-02T08:53:26;99016.47;;;20.24
11926;BMP180;6022;48.768;18.608;2022-11-02T08:55:56;99012.16;;;20.51
11926;BMP180;6022;48.768;18.608;2022-11-02T08:58:25;99017.66;;;20.03
11926;BMP180;6022;48.768;18.608;2022-11-02T09:00:53;99024.06;;;20.26
11926;BMP180;6022;48.768;18.608;2022-11-02T09:03:20;99011.41;;;20.32
11926;BMP180;6022;48.768;18.608;2022-11-02T09:06:01;99013.84;;;20.60
11926;BMP180;6022;48.768;18.608;2022-11-02T09:08:29;99019.28;;;20.84
11926;BMP180;6022;48.768;18.608;2022-11-02T09:11:00;99016.91;;;20.90
11926;BMP180;6022;48.768;18.608;2022-11-02T09:13:28;99011.03;;;20.98
11926;BMP180;6022;48.768;18.608;2022-11-02T09:15:58;99006.84;;;21.14
11926;BMP180;6022;48.768;18.608;2022-11-02T09:18:25;99009.47;;;21.22
11926;BMP180;6022;48.768;18.608;2022-11-02T09:20:53;99003.75;;;21.70
11926;BMP180;6022;48.768;18.608;2022-11-02T09:23:22;98998.81;;;22.10
11926;BMP180;6022;48.768;18.608;2022-11-02T09:25:49;99001.06;;;22.05
11926;BMP180;6022;48.768;18.608;2022-11-02T09:28:17;99007.84;;;22.06
11926;BMP180;6022;48.768;18.608;2022-11-02T09:30:44;98998.81;;;22.10
11926;BMP180;6022;48.768;18.608;2022-11-02T09:33:11;99001.19;;;21.96
11926;BMP180;6022;48.768;18.608;2022-11-02T09:35:46;98996.28;;;22.18
11926;BMP180;6022;48.768;18.608;2022-11-02T09:38:14;98997.63;;;22.22
11926;BMP180;6022;48.768;18.608;2022-11-02T09:46:40;98996.47;;;22.65
11926;BMP180;6022;48.768;18.608;2022-11-02T09:49:15;98996.13;;;22.68
11926;BMP180;6022;48.768;18.608;2022-11-02T09:51:53;98988.69;;;22.57
11926;BMP180;6022;48.768;18.608;2022-11-02T09:56:56;98996.38;;;22.90
11926;BMP180;6022;48.768;18.608;2022-11-02T09:59:26;98986.53;;;23.10
11926;BMP180;6022;48.768;18.608;2022-11-02T10:02:23;98987.38;;;23.42
11926;BMP180;6022;48.768;18.608;2022-11-02T10:05:20;98988.16;;;23.74
11926;BMP180;6022;48.768;18.608;2022-11-02T10:08:33;98973.00;;;24.01
11926;BMP180;6022;48.768;18.608;2022-11-02T10:11:14;98980.41;;;24.28
11926;BMP180;6022;48.768;18.608;2022-11-02T10:16:39;98983.22;;;24.48
11926;BMP180;6022;48.768;18.608;2022-11-02T10:19:16;98964.59;;;23.99
11926;BMP180;6022;48.768;18.608;2022-11-02T10:21:49;98981.03;;;23.68
11926;BMP180;6022;48.768;18.608;2022-11-02T10:24:38;98974.53;;;23.56
11926;BMP180;6022;48.768;18.608;2022-11-02T10:27:16;98970.53;;;23.22
11926;BMP180;6022;48.768;18.608;2022-11-02T10:30:03;98968.03;;;22.81
11926;BMP180;6022;48.768;18.608;2022-11-02T10:32:34;98964.28;;;22.52
11926;BMP180;6022;48.768;18.608;2022-11-02T10:35:08;98964.06;;;22.45
11926;BMP180;6022;48.768;18.608;2022-11-02T10:38:43;98959.28;;;22.17
11926;BMP180;6022;48.768;18.608;2022-11-02T10:47:38;98952.84;;;21.38
11926;BMP180;6022;48.768;18.608;2022-11-02T10:53:20;98942.72;;;21.44
11926;BMP180;6022;48.768;18.608;2022-11-02T10:56:23;98946.34;;;21.34
11926;BMP180;6022;48.768;18.608;2022-11-02T11:01:26;98935.72;;;21.87
11926;BMP180;6022;48.768;18.608;2022-11-02T11:04:04;98937.50;;;21.87
11926;BMP180;6022;48.768;18.608;2022-11-02T11:06:42;98937.13;;;22.56
11926;BMP180;6022;48.768;18.608;2022-11-02T11:09:22;98933.06;;;22.53
11926;BMP180;6022;48.768;18.608;2022-11-02T11:12:00;98937.13;;;22.79
11926;BMP180;6022;48.768;18.608;2022-11-02T11:14:46;98933.09;;;22.77
11926;BMP180;6022;48.768;18.608;2022-11-02T11:17:38;98928.66;;;22.46
11926;BMP180;6022;48.768;18.608;2022-11-02T11:20:36;98932.41;;;22.10
11926;BMP180;6022;48.768;18.608;2022-11-02T11:23:35;98927.13;;;21.79
11926;BMP180;6022;48.768;18.608;2022-11-02T11:26:05;98930.19;;;21.49
11926;BMP180;6022;48.768;18.608;2022-11-02T11:28:52;98928.44;;;21.32
11926;BMP180;6022;48.768;18.608;2022-11-02T11:31:21;98925.06;;;21.15
11926;BMP180;6022;48.768;18.608;2022-11-02T11:33:56;98922.44;;;21.07
11926;BMP180;6022;48.768;18.608;2022-11-02T11:36:30;98924.88;;;21.33
11926;BMP180;6022;48.768;18.608;2022-11-02T11:39:15;98928.56;;;21.48
11926;BMP180;6022;48.768;18.608;2022-11-02T11:41:45;98921.53;;;21.91
11926;BMP180;6022;48.768;18.608;2022-11-02T11:44:14;98924.59;;;22.28
11926;BMP180;6022;48.768;18.608;2022-11-02T11:46:55;98918.38;;;22.62
11926;BMP180;6022;48.768;18.608;2022-11-02T11:49:29;98910.31;;;22.73
11926;BMP180;6022;48.768;18.608;2022-11-02T11:52:21;98909.03;;;23.16
11926;BMP180;6022;48.768;18.608;2022-11-02T11:55:27;98906.72;;;23.45
11926;BMP180;6022;48.768;18.608;2022-11-02T11:58:23;98893.09;;;23.51
11926;BMP180;6022;48.768;18.608;2022-11-02T12:03:52;98898.13;;;23.52
11926;BMP180;6022;48.768;18.608;2022-11-02T12:21:34;98884.59;;;22.87
11926;BMP180;6022;48.768;18.608;2022-11-02T12:51:18;98881.19;;;21.15
11926;BMP180;6022;48.768;18.608;2022-11-02T12:53:58;98886.66;;;21.12
11926;BMP180;6022;48.768;18.608;2022-11-02T12:58:59;98875.47;;;21.03
11926;BMP180;6022;48.768;18.608;2022-11-02T13:01:41;98883.25;;;20.86
11926;BMP180;6022;48.768;18.608;2022-11-02T13:04:23;98884.78;;;20.79
11926;BMP180;6022;48.768;18.608;2022-11-02T13:07:17;98877.13;;;20.70
11926;BMP180;6022;48.768;18.608;2022-11-02T13:10:11;98892.44;;;20.54
11926;BMP180;6022;48.768;18.608;2022-11-02T13:12:43;98897.94;;;20.42
11926;BMP180;6022;48.768;18.608;2022-11-02T13:15:23;98892.28;;;20.38
11926;BMP180;6022;48.768;18.608;2022-11-02T13:18:10;98893.75;;;20.41
11926;BMP180;6022;48.768;18.608;2022-11-02T13:20:44;98899.06;;;20.39
11926;BMP180;6022;48.768;18.608;2022-11-02T13:23:50;98895.34;;;20.24
11926;BMP180;6022;48.768;18.608;2022-11-02T13:26:38;98895.19;;;20.08
11926;BMP180;6022;48.768;18.608;2022-11-02T13:29:26;98893.34;;;20.01
11926;BMP180;6022;48.768;18.608;2022-11-02T13:32:40;98894.56;;;20.24
11926;BMP180;6022;48.768;18.608;2022-11-02T13:37:48;98902.22;;;20.33
11926;BMP180;6022;48.768;18.608;2022-11-02T13:40:29;98901.41;;;20.33
11926;BMP180;6022;48.768;18.608;2022-11-02T13:46:11;98910.09;;;20.32
11926;BMP180;6022;48.768;18.608;2022-11-02T13:49:03;98908.69;;;20.20
11926;BMP180;6022;48.768;18.608;2022-11-02T13:51:46;98911.69;;;20.15
11926;BMP180;6022;48.768;18.608;2022-11-02T13:54:23;98906.56;;;20.06
11926;BMP180;6022;48.768;18.608;2022-11-02T13:56:56;98909.72;;;20.00
11926;BMP180;6022;48.768;18.608;2022-11-02T13:59:30;98904.56;;;20.00
11926;BMP180;6022;48.768;18.608;2022-11-02T14:02:01;98906.66;;;19.87
11926;BMP180;6022;48.768;18.608;2022-11-02T14:04:40;98904.28;;;19.76
11926;BMP180;6022;48.768;18.608;2022-11-02T14:07:25;98904.63;;;19.55
11926;BMP180;6022;48.768;18.608;2022-11-02T14:12:46;98909.97;;;19.25
11926;BMP180;6022;48.768;18.608;2022-11-02T14:20:46;98904.06;;;19.06
11926;BMP180;6022;48.768;18.608;2022-11-02T14:25:57;98901.19;;;18.62
11926;BMP180;6022;48.768;18.608;2022-11-02T14:28:42;98896.59;;;18.47
11926;BMP180;6022;48.768;18.608;2022-11-02T14:34:22;98890.91;;;18.34
11926;BMP180;6022;48.768;18.608;2022-11-02T14:49:04;98900.78;;;17.90
11926;BMP180;6022;48.768;18.608;2022-11-02T14:51:41;98900.63;;;17.82
11926;BMP180;6022;48.768;18.608;2022-11-02T14:54:17;98903.69;;;17.76
11926;BMP180;6022;48.768;18.608;2022-11-02T14:56:54;98902.16;;;17.64
11926;BMP180;6022;48.768;18.608;2022-11-02T14:59:32;98903.09;;;17.54
11926;BMP180;6022;48.768;18.608;2022-11-02T15:02:08;98910.28;;;17.40
11926;BMP180;6022;48.768;18.608;2022-11-02T15:04:51;98911.78;;;17.22
11926;BMP180;6022;48.768;18.608;2022-11-02T15:10:03;98917.03;;;17.00
11926;BMP180;6022;48.768;18.608;2022-11-02T15:12:38;98912.63;;;16.91
11926;BMP180;6022;48.768;18.608;2022-11-02T15:22:59;98931.22;;;16.53
11926;BMP180;6022;48.768;18.608;2022-11-02T15:25:49;98933.53;;;16.45
11926;BMP180;6022;48.768;18.608;2022-11-02T15:28:23;98931.59;;;16.37
11926;BMP180;6022;48.768;18.608;2022-11-02T15:30:58;98931.75;;;16.25
11926;BMP180;6022;48.768;18.608;2022-11-02T15:33:44;98935.91;;;16.15
11926;BMP180;6022;48.768;18.608;2022-11-02T15:36:37;98936.63;;;16.06
11926;BMP180;6022;48.768;18.608;2022-11-02T15:39:07;98939.19;;;15.95
11926;BMP180;6022;48.768;18.608;2022-11-02T15:42:02;98932.22;;;15.87
11926;BMP180;6022;48.768;18.608;2022-11-02T15:50:57;98957.13;;;15.63
11926;BMP180;6022;48.768;18.608;2022-11-02T15:53:51;98957.78;;;15.54
11926;BMP180;6022;48.768;18.608;2022-11-02T15:59:44;98967.75;;;15.35
11926;BMP180;6022;48.768;18.608;2022-11-02T16:02:35;98972.16;;;15.33
11926;BMP180;6022;48.768;18.608;2022-11-02T16:05:04;98968.63;;;15.23
11926;BMP180;6022;48.768;18.608;2022-11-02T16:07:34;98983.03;;;15.13
11926;BMP180;6022;48.768;18.608;2022-11-02T16:10:30;98991.81;;;15.10
11926;BMP180;6022;48.768;18.608;2022-11-02T16:13:14;98994.72;;;15.05
11926;BMP180;6022;48.768;18.608;2022-11-02T16:15:47;98991.28;;;14.94
11926;BMP180;6022;48.768;18.608;2022-11-02T16:18:51;98996.00;;;14.87
11926;BMP180;6022;48.768;18.608;2022-11-02T16:21:20;98999.81;;;14.82
11926;BMP180;6022;48.768;18.608;2022-11-02T16:23:56;99003.19;;;14.82
11926;BMP180;6022;48.768;18.608;2022-11-02T16:26:28;99008.06;;;14.85
11926;BMP180;6022;48.768;18.608;2022-11-02T16:28:58;99009.03;;;14.84
11926;BMP180;6022;48.768;18.608;2022-11-02T16:31:27;99015.13;;;14.82
11926;BMP180;6022;48.768;18.608;2022-11-02T16:34:02;99017.94;;;14.79
11926;BMP180;6022;48.768;18.608;2022-11-02T16:36:35;99020.41;;;14.68
11926;BMP180;6022;48.768;18.608;2022-11-02T16:39:13;99025.25;;;14.60
11926;BMP180;6022;48.768;18.608;2022-11-02T16:41:54;99035.38;;;14.49
11926;BMP180;6022;48.768;18.608;2022-11-02T16:44:33;99035.72;;;14.45
11926;BMP180;6022;48.768;18.608;2022-11-02T16:52:34;99042.88;;;14.40
11926;BMP180;6022;48.768;18.608;2022-11-02T16:55:44;99037.25;;;14.35
11926;BMP180;6022;48.768;18.608;2022-11-02T16:58:24;99052.56;;;14.35
11926;BMP180;6022;48.768;18.608;2022-11-02T17:00:56;99045.00;;;14.34
11926;BMP180;6022;48.768;18.608;2022-11-02T17:03:29;99036.63;;;14.32
11926;BMP180;6022;48.768;18.608;2022-11-02T17:06:01;99042.59;;;14.32
11926;BMP180;6022;48.768;18.608;2022-11-02T17:08:37;99054.50;;;14.32
11926;BMP180;6022;48.768;18.608;2022-11-02T17:11:10;99060.56;;;14.31
11926;BMP180;6022;48.768;18.608;2022-11-02T17:13:54;99052.19;;;14.29
11926;BMP180;6022;48.768;18.608;2022-11-02T17:16:22;99059.13;;;14.27
11926;BMP180;6022;48.768;18.608;2022-11-02T17:18:49;99060.25;;;14.23
11926;BMP180;6022;48.768;18.608;2022-11-02T17:21:28;99066.38;;;14.08
11926;BMP180;6022;48.768;18.608;2022-11-02T17:23:57;99070.66;;;13.95